sensor_id;sensor_type;location;lat;lon;timestamp;P1;durP1;ratioP1;P2;durP2;ratioP2
26977;SDS011;56314;48.088;11.642;2023-04-15T00:02:14;9.13;;;4.03;;
26977;SDS011;56314;48.088;11.642;2023-04-15T00:04:40;8.32;;;3.53;;
26977;SDS011;56314;48.088;11.642;2023-04-15T00:07:05;7.95;;;4.03;;
26977;SDS011;56314;48.088;11.642;2023-04-15T00:09:31;9.43;;;3.63;;
26977;SDS011;56314;48.088;11.642;2023-04-15T00:11:56;7.03;;;3.63;;
26977;SDS011;56314;48.088;11.642;2023-04-15T00:14:21;5.53;;;3.45;;
26977;SDS011;56314;48.088;11.642;2023-04-15T00:16:47;13.82;;;4.05;;
26977;SDS011;56314;48.088;11.642;2023-04-15T00:19:19;11.60;;;3.65;;
26977;SDS011;56314;48.088;11.642;2023-04-15T00:21:44;6.55;;;3.80;;
26977;SDS011;56314;48.088;11.642;2023-04-15T00:24:10;8.55;;;3.88;;
26977;SDS011;56314;48.088;11.642;2023-04-15T00:26:35;6.90;;;4.35;;
26977;SDS011;56314;48.088;11.642;2023-04-15T00:29:01;8.70;;;3.88;;
26977;SDS011;56314;48.088;11.642;2023-04-15T00:31:26;7.72;;;4.18;;
26977;SDS011;56314;48.088;11.642;2023-04-15T00:33:52;6.63;;;4.00;;
26977;SDS011;56314;48.088;11.642;2023-04-15T00:36:17;13.32;;;4.47;;
26977;SDS011;56314;48.088;11.642;2023-04-15T00:38:43;12.30;;;4.40;;
26977;SDS011;56314;48.088;11.642;2023-04-15T00:41:08;6.43;;;3.88;;
26977;SDS011;56314;48.088;11.642;2023-04-15T00:43:35;7.30;;;4.07;;
26977;SDS011;56314;48.088;11.642;2023-04-15T00:46:00;6.80;;;4.43;;
26977;SDS011;56314;48.088;11.642;2023-04-15T00:48:28;8.02;;;3.85;;
26977;SDS011;56314;48.088;11.642;2023-04-15T00:50:54;12.68;;;4.82;;
26977;SDS011;56314;48.088;11.642;2023-04-15T00:53:20;9.38;;;4.30;;
26977;SDS011;56314;48.088;11.642;2023-04-15T00:55:45;7.15;;;3.85;;
26977;SDS011;56314;48.088;11.642;2023-04-15T00:58:10;11.48;;;4.75;;
26977;SDS011;56314;48.088;11.642;2023-04-15T01:00:36;8.98;;;4.35;;
26977;SDS011;56314;48.088;11.642;2023-04-15T01:03:01;10.68;;;4.63;;
26977;SDS011;56314;48.088;11.642;2023-04-15T01:05:27;10.23;;;4.40;;
26977;SDS011;56314;48.088;11.642;2023-04-15T01:07:52;7.75;;;4.72;;
26977;SDS011;56314;48.088;11.642;2023-04-15T01:10:19;7.70;;;4.38;;
26977;SDS011;56314;48.088;11.642;2023-04-15T01:12:45;7.90;;;4.32;;
26977;SDS011;56314;48.088;11.642;2023-04-15T01:15:10;9.98;;;4.50;;
26977;SDS011;56314;48.088;11.642;2023-04-15T01:17:36;12.55;;;4.57;;
26977;SDS011;56314;48.088;11.642;2023-04-15T01:20:02;7.25;;;4.25;;
26977;SDS011;56314;48.088;11.642;2023-04-15T01:22:29;8.25;;;3.90;;
26977;SDS011;56314;48.088;11.642;2023-04-15T01:25:04;7.85;;;4.28;;
26977;SDS011;56314;48.088;11.642;2023-04-15T01:27:33;6.43;;;3.90;;
26977;SDS011;56314;48.088;11.642;2023-04-15T01:30:00;6.43;;;4.22;;
26977;SDS011;56314;48.088;11.642;2023-04-15T01:32:27;7.57;;;4.32;;
26977;SDS011;56314;48.088;11.642;2023-04-15T01:34:52;7.88;;;4.85;;
26977;SDS011;56314;48.088;11.642;2023-04-15T01:37:18;8.45;;;4.25;;
26977;SDS011;56314;48.088;11.642;2023-04-15T01:39:43;11.13;;;4.40;;
26977;SDS011;56314;48.088;11.642;2023-04-15T01:42:08;7.85;;;4.00;;
26977;SDS011;56314;48.088;11.642;2023-04-15T01:44:34;11.52;;;4.70;;
26977;SDS011;56314;48.088;11.642;2023-04-15T01:46:59;10.85;;;4.38;;
26977;SDS011;56314;48.088;11.642;2023-04-15T01:49:25;8.63;;;4.97;;
26977;SDS011;56314;48.088;11.642;2023-04-15T01:51:50;9.02;;;4.15;;
26977;SDS011;56314;48.088;11.642;2023-04-15T01:54:15;5.72;;;4.45;;
26977;SDS011;56314;48.088;11.642;2023-04-15T01:56:41;8.38;;;4.38;;
26977;SDS011;56314;48.088;11.642;2023-04-15T01:59:06;7.70;;;4.38;;
26977;SDS011;56314;48.088;11.642;2023-04-15T02:01:32;7.95;;;4.47;;
26977;SDS011;56314;48.088;11.642;2023-04-15T02:03:58;9.13;;;4.55;;
26977;SDS011;56314;48.088;11.642;2023-04-15T02:06:23;11.07;;;5.30;;
26977;SDS011;56314;48.088;11.642;2023-04-15T02:08:48;8.10;;;4.05;;
26977;SDS011;56314;48.088;11.642;2023-04-15T02:11:14;10.63;;;5.25;;
26977;SDS011;56314;48.088;11.642;2023-04-15T02:13:39;9.25;;;4.53;;
26977;SDS011;56314;48.088;11.642;2023-04-15T02:16:13;10.02;;;4.85;;
26977;SDS011;56314;48.088;11.642;2023-04-15T02:18:40;6.85;;;4.57;;
26977;SDS011;56314;48.088;11.642;2023-04-15T02:21:05;7.28;;;4.47;;
26977;SDS011;56314;48.088;11.642;2023-04-15T02:23:31;7.10;;;4.97;;
26977;SDS011;56314;48.088;11.642;2023-04-15T02:25:56;9.18;;;4.47;;
26977;SDS011;56314;48.088;11.642;2023-04-15T02:28:21;9.98;;;4.78;;
26977;SDS011;56314;48.088;11.642;2023-04-15T02:30:47;11.23;;;5.13;;
26977;SDS011;56314;48.088;11.642;2023-04-15T02:33:16;8.88;;;4.43;;
26977;SDS011;56314;48.088;11.642;2023-04-15T02:35:42;11.23;;;5.20;;
26977;SDS011;56314;48.088;11.642;2023-04-15T02:38:09;10.52;;;4.40;;
26977;SDS011;56314;48.088;11.642;2023-04-15T02:40:35;8.40;;;5.15;;
26977;SDS011;56314;48.088;11.642;2023-04-15T02:43:01;13.98;;;5.35;;
26977;SDS011;56314;48.088;11.642;2023-04-15T02:45:27;10.18;;;4.72;;
26977;SDS011;56314;48.088;11.642;2023-04-15T02:47:52;9.38;;;4.90;;
26977;SDS011;56314;48.088;11.642;2023-04-15T02:50:18;8.15;;;4.50;;
26977;SDS011;56314;48.088;11.642;2023-04-15T02:52:45;7.10;;;4.68;;
26977;SDS011;56314;48.088;11.642;2023-04-15T02:55:10;8.95;;;4.82;;
26977;SDS011;56314;48.088;11.642;2023-04-15T02:57:36;9.98;;;4.78;;
26977;SDS011;56314;48.088;11.642;2023-04-15T03:00:03;11.73;;;4.53;;
26977;SDS011;56314;48.088;11.642;2023-04-15T03:02:33;6.38;;;4.40;;
26977;SDS011;56314;48.088;11.642;2023-04-15T03:05:00;11.32;;;4.97;;
26977;SDS011;56314;48.088;11.642;2023-04-15T03:07:25;8.38;;;4.32;;
26977;SDS011;56314;48.088;11.642;2023-04-15T03:09:50;10.63;;;4.57;;
26977;SDS011;56314;48.088;11.642;2023-04-15T03:12:16;12.25;;;5.10;;
26977;SDS011;56314;48.088;11.642;2023-04-15T03:14:41;9.25;;;4.63;;
26977;SDS011;56314;48.088;11.642;2023-04-15T03:17:07;9.00;;;5.00;;
26977;SDS011;56314;48.088;11.642;2023-04-15T03:19:32;9.15;;;4.90;;
26977;SDS011;56314;48.088;11.642;2023-04-15T03:21:57;8.38;;;5.03;;
26977;SDS011;56314;48.088;11.642;2023-04-15T03:24:23;8.18;;;4.15;;
26977;SDS011;56314;48.088;11.642;2023-04-15T03:26:48;8.25;;;4.97;;
26977;SDS011;56314;48.088;11.642;2023-04-15T03:29:14;10.65;;;5.28;;
26977;SDS011;56314;48.088;11.642;2023-04-15T03:31:40;8.77;;;4.50;;
26977;SDS011;56314;48.088;11.642;2023-04-15T03:34:05;11.13;;;5.18;;
26977;SDS011;56314;48.088;11.642;2023-04-15T03:36:31;12.63;;;5.03;;
26977;SDS011;56314;48.088;11.642;2023-04-15T03:39:00;7.88;;;4.95;;
26977;SDS011;56314;48.088;11.642;2023-04-15T03:41:28;9.88;;;4.80;;
26977;SDS011;56314;48.088;11.642;2023-04-15T03:43:53;9.65;;;4.50;;
26977;SDS011;56314;48.088;11.642;2023-04-15T03:46:19;5.82;;;4.28;;
26977;SDS011;56314;48.088;11.642;2023-04-15T03:48:45;9.75;;;4.78;;
26977;SDS011;56314;48.088;11.642;2023-04-15T03:51:11;10.60;;;4.55;;
26977;SDS011;56314;48.088;11.642;2023-04-15T03:53:36;6.50;;;4.15;;
26977;SDS011;56314;48.088;11.642;2023-04-15T03:56:02;9.20;;;4.40;;
26977;SDS011;56314;48.088;11.642;2023-04-15T03:58:27;9.15;;;4.65;;
26977;SDS011;56314;48.088;11.642;2023-04-15T04:00:52;10.15;;;4.18;;
26977;SDS011;56314;48.088;11.642;2023-04-15T04:03:18;11.57;;;5.00;;
26977;SDS011;56314;48.088;11.642;2023-04-15T04:05:44;5.53;;;3.83;;
26977;SDS011;56314;48.088;11.642;2023-04-15T04:08:09;11.20;;;4.85;;
26977;SDS011;56314;48.088;11.642;2023-04-15T04:10:37;9.05;;;4.40;;
26977;SDS011;56314;48.088;11.642;2023-04-15T04:13:03;7.68;;;3.83;;
26977;SDS011;56314;48.088;11.642;2023-04-15T04:15:28;10.20;;;4.57;;
26977;SDS011;56314;48.088;11.642;2023-04-15T04:17:53;8.93;;;4.20;;
26977;SDS011;56314;48.088;11.642;2023-04-15T04:20:20;9.07;;;3.95;;
26977;SDS011;56314;48.088;11.642;2023-04-15T04:22:45;8.32;;;3.95;;
26977;SDS011;56314;48.088;11.642;2023-04-15T04:25:11;7.40;;;3.80;;
26977;SDS011;56314;48.088;11.642;2023-04-15T04:27:36;5.70;;;3.90;;
26977;SDS011;56314;48.088;11.642;2023-04-15T04:30:02;11.05;;;3.92;;
26977;SDS011;56314;48.088;11.642;2023-04-15T04:32:28;9.23;;;4.35;;
26977;SDS011;56314;48.088;11.642;2023-04-15T04:34:53;7.57;;;3.78;;
26977;SDS011;56314;48.088;11.642;2023-04-15T04:37:18;8.73;;;3.58;;
26977;SDS011;56314;48.088;11.642;2023-04-15T04:39:44;11.05;;;4.07;;
26977;SDS011;56314;48.088;11.642;2023-04-15T04:42:09;6.85;;;3.65;;
26977;SDS011;56314;48.088;11.642;2023-04-15T04:44:35;7.60;;;3.80;;
26977;SDS011;56314;48.088;11.642;2023-04-15T04:47:00;6.40;;;3.58;;
26977;SDS011;56314;48.088;11.642;2023-04-15T04:49:25;7.45;;;3.53;;
26977;SDS011;56314;48.088;11.642;2023-04-15T04:51:51;9.13;;;3.63;;
26977;SDS011;56314;48.088;11.642;2023-04-15T04:54:16;10.88;;;3.92;;
26977;SDS011;56314;48.088;11.642;2023-04-15T04:56:41;10.25;;;4.30;;
26977;SDS011;56314;48.088;11.642;2023-04-15T04:59:07;7.60;;;3.42;;
26977;SDS011;56314;48.088;11.642;2023-04-15T05:01:33;8.23;;;3.88;;
26977;SDS011;56314;48.088;11.642;2023-04-15T05:03:58;7.10;;;3.53;;
26977;SDS011;56314;48.088;11.642;2023-04-15T05:06:24;9.73;;;4.47;;
26977;SDS011;56314;48.088;11.642;2023-04-15T05:08:50;6.75;;;3.33;;
26977;SDS011;56314;48.088;11.642;2023-04-15T05:11:15;7.22;;;3.70;;
26977;SDS011;56314;48.088;11.642;2023-04-15T05:13:41;6.80;;;3.40;;
26977;SDS011;56314;48.088;11.642;2023-04-15T05:16:06;6.57;;;3.10;;
26977;SDS011;56314;48.088;11.642;2023-04-15T05:18:32;5.78;;;3.10;;
26977;SDS011;56314;48.088;11.642;2023-04-15T05:20:57;10.88;;;2.92;;
26977;SDS011;56314;48.088;11.642;2023-04-15T05:23:23;8.50;;;3.50;;
26977;SDS011;56314;48.088;11.642;2023-04-15T05:25:49;6.43;;;3.60;;
26977;SDS011;56314;48.088;11.642;2023-04-15T05:28:14;7.85;;;3.42;;
26977;SDS011;56314;48.088;11.642;2023-04-15T05:30:40;5.47;;;3.10;;
26977;SDS011;56314;48.088;11.642;2023-04-15T05:33:05;7.93;;;3.90;;
26977;SDS011;56314;48.088;11.642;2023-04-15T05:35:31;7.45;;;2.70;;
26977;SDS011;56314;48.088;11.642;2023-04-15T05:37:56;10.57;;;3.70;;
26977;SDS011;56314;48.088;11.642;2023-04-15T05:40:21;10.60;;;3.33;;
26977;SDS011;56314;48.088;11.642;2023-04-15T05:42:47;6.93;;;3.47;;
26977;SDS011;56314;48.088;11.642;2023-04-15T05:45:12;10.25;;;3.70;;
26977;SDS011;56314;48.088;11.642;2023-04-15T05:47:38;5.95;;;2.95;;
26977;SDS011;56314;48.088;11.642;2023-04-15T05:50:06;11.23;;;2.75;;
26977;SDS011;56314;48.088;11.642;2023-04-15T05:52:32;9.48;;;2.70;;
26977;SDS011;56314;48.088;11.642;2023-04-15T05:54:57;9.57;;;2.90;;
26977;SDS011;56314;48.088;11.642;2023-04-15T05:57:22;5.03;;;2.60;;
26977;SDS011;56314;48.088;11.642;2023-04-15T05:59:48;7.93;;;2.55;;
26977;SDS011;56314;48.088;11.642;2023-04-15T06:02:15;6.18;;;2.55;;
26977;SDS011;56314;48.088;11.642;2023-04-15T06:04:41;5.45;;;2.17;;
26977;SDS011;56314;48.088;11.642;2023-04-15T06:07:07;3.97;;;2.20;;
26977;SDS011;56314;48.088;11.642;2023-04-15T06:09:32;5.68;;;2.75;;
26977;SDS011;56314;48.088;11.642;2023-04-15T06:11:57;5.88;;;2.13;;
26977;SDS011;56314;48.088;11.642;2023-04-15T06:14:23;11.38;;;2.58;;
26977;SDS011;56314;48.088;11.642;2023-04-15T06:16:48;7.32;;;2.35;;
26977;SDS011;56314;48.088;11.642;2023-04-15T06:19:13;7.15;;;2.40;;
26977;SDS011;56314;48.088;11.642;2023-04-15T06:21:39;4.15;;;1.73;;
26977;SDS011;56314;48.088;11.642;2023-04-15T06:24:05;6.70;;;2.30;;
26977;SDS011;56314;48.088;11.642;2023-04-15T06:26:30;8.88;;;2.28;;
26977;SDS011;56314;48.088;11.642;2023-04-15T06:28:56;4.38;;;2.35;;
26977;SDS011;56314;48.088;11.642;2023-04-15T06:31:21;4.68;;;2.95;;
26977;SDS011;56314;48.088;11.642;2023-04-15T06:33:46;3.75;;;2.30;;
26977;SDS011;56314;48.088;11.642;2023-04-15T06:36:12;4.70;;;2.28;;
26977;SDS011;56314;48.088;11.642;2023-04-15T06:38:37;10.35;;;2.13;;
26977;SDS011;56314;48.088;11.642;2023-04-15T06:41:03;4.88;;;2.30;;
26977;SDS011;56314;48.088;11.642;2023-04-15T06:43:29;5.78;;;2.50;;
26977;SDS011;56314;48.088;11.642;2023-04-15T06:45:54;6.72;;;2.00;;
26977;SDS011;56314;48.088;11.642;2023-04-15T06:48:20;5.90;;;2.25;;
26977;SDS011;56314;48.088;11.642;2023-04-15T06:50:46;4.80;;;1.83;;
26977;SDS011;56314;48.088;11.642;2023-04-15T06:53:12;6.20;;;2.00;;
26977;SDS011;56314;48.088;11.642;2023-04-15T06:55:37;6.53;;;2.20;;
26977;SDS011;56314;48.088;11.642;2023-04-15T06:58:03;4.60;;;2.17;;
26977;SDS011;56314;48.088;11.642;2023-04-15T07:00:28;7.07;;;2.13;;
26977;SDS011;56314;48.088;11.642;2023-04-15T07:02:54;2.75;;;1.90;;
26977;SDS011;56314;48.088;11.642;2023-04-15T07:05:20;3.78;;;2.03;;
26977;SDS011;56314;48.088;11.642;2023-04-15T07:07:45;8.68;;;1.85;;
26977;SDS011;56314;48.088;11.642;2023-04-15T07:10:11;6.65;;;2.33;;
26977;SDS011;56314;48.088;11.642;2023-04-15T07:12:36;2.72;;;2.05;;
26977;SDS011;56314;48.088;11.642;2023-04-15T07:15:02;5.85;;;1.80;;
26977;SDS011;56314;48.088;11.642;2023-04-15T07:17:28;8.07;;;2.47;;
26977;SDS011;56314;48.088;11.642;2023-04-15T07:19:53;4.53;;;1.95;;
26977;SDS011;56314;48.088;11.642;2023-04-15T07:22:19;2.58;;;1.55;;
26977;SDS011;56314;48.088;11.642;2023-04-15T07:24:44;5.10;;;1.60;;
26977;SDS011;56314;48.088;11.642;2023-04-15T07:27:10;4.90;;;1.92;;
26977;SDS011;56314;48.088;11.642;2023-04-15T07:29:36;5.13;;;1.67;;
26977;SDS011;56314;48.088;11.642;2023-04-15T07:32:01;5.82;;;2.15;;
26977;SDS011;56314;48.088;11.642;2023-04-15T07:34:27;2.83;;;1.50;;
26977;SDS011;56314;48.088;11.642;2023-04-15T07:36:52;2.75;;;1.80;;
26977;SDS011;56314;48.088;11.642;2023-04-15T07:39:18;2.78;;;1.52;;
26977;SDS011;56314;48.088;11.642;2023-04-15T07:41:43;6.97;;;2.80;;
26977;SDS011;56314;48.088;11.642;2023-04-15T07:44:09;5.15;;;2.03;;
26977;SDS011;56314;48.088;11.642;2023-04-15T07:46:35;4.35;;;2.00;;
26977;SDS011;56314;48.088;11.642;2023-04-15T07:49:01;6.20;;;2.03;;
26977;SDS011;56314;48.088;11.642;2023-04-15T07:51:26;2.97;;;1.85;;
26977;SDS011;56314;48.088;11.642;2023-04-15T07:53:53;4.60;;;1.70;;
26977;SDS011;56314;48.088;11.642;2023-04-15T07:56:18;7.30;;;1.98;;
26977;SDS011;56314;48.088;11.642;2023-04-15T07:58:44;6.28;;;1.73;;
26977;SDS011;56314;48.088;11.642;2023-04-15T08:01:10;10.00;;;3.10;;
26977;SDS011;56314;48.088;11.642;2023-04-15T08:03:35;5.90;;;2.63;;
26977;SDS011;56314;48.088;11.642;2023-04-15T08:06:01;5.13;;;1.90;;
26977;SDS011;56314;48.088;11.642;2023-04-15T08:08:27;6.35;;;2.00;;
26977;SDS011;56314;48.088;11.642;2023-04-15T08:10:52;4.60;;;1.75;;
26977;SDS011;56314;48.088;11.642;2023-04-15T08:13:17;3.70;;;1.90;;
26977;SDS011;56314;48.088;11.642;2023-04-15T08:15:43;4.65;;;2.60;;
26977;SDS011;56314;48.088;11.642;2023-04-15T08:18:08;7.05;;;2.83;;
26977;SDS011;56314;48.088;11.642;2023-04-15T08:20:34;4.53;;;2.13;;
26977;SDS011;56314;48.088;11.642;2023-04-15T08:23:00;4.00;;;1.75;;
26977;SDS011;56314;48.088;11.642;2023-04-15T08:25:25;3.92;;;2.03;;
26977;SDS011;56314;48.088;11.642;2023-04-15T08:27:53;8.40;;;2.47;;
26977;SDS011;56314;48.088;11.642;2023-04-15T08:30:19;3.53;;;2.30;;
26977;SDS011;56314;48.088;11.642;2023-04-15T08:32:45;6.75;;;2.22;;
26977;SDS011;56314;48.088;11.642;2023-04-15T08:35:11;6.03;;;2.50;;
26977;SDS011;56314;48.088;11.642;2023-04-15T08:37:36;4.03;;;2.20;;
26977;SDS011;56314;48.088;11.642;2023-04-15T08:40:02;5.25;;;2.33;;
26977;SDS011;56314;48.088;11.642;2023-04-15T08:42:33;6.45;;;2.58;;
26977;SDS011;56314;48.088;11.642;2023-04-15T08:45:05;3.65;;;1.90;;
26977;SDS011;56314;48.088;11.642;2023-04-15T08:47:34;4.53;;;2.00;;
26977;SDS011;56314;48.088;11.642;2023-04-15T08:50:02;6.40;;;2.10;;
26977;SDS011;56314;48.088;11.642;2023-04-15T08:52:29;4.15;;;2.58;;
26977;SDS011;56314;48.088;11.642;2023-04-15T08:54:56;6.13;;;2.15;;
26977;SDS011;56314;48.088;11.642;2023-04-15T08:57:25;2.38;;;1.75;;
26977;SDS011;56314;48.088;11.642;2023-04-15T08:59:54;5.05;;;1.92;;
26977;SDS011;56314;48.088;11.642;2023-04-15T09:02:21;4.05;;;2.10;;
26977;SDS011;56314;48.088;11.642;2023-04-15T09:04:51;7.70;;;2.17;;
26977;SDS011;56314;48.088;11.642;2023-04-15T09:07:17;4.78;;;1.92;;
26977;SDS011;56314;48.088;11.642;2023-04-15T09:09:42;7.28;;;2.70;;
26977;SDS011;56314;48.088;11.642;2023-04-15T09:12:08;4.40;;;2.58;;
26977;SDS011;56314;48.088;11.642;2023-04-15T09:14:34;6.88;;;2.17;;
26977;SDS011;56314;48.088;11.642;2023-04-15T09:17:01;6.20;;;2.70;;
26977;SDS011;56314;48.088;11.642;2023-04-15T09:19:27;4.00;;;2.30;;
26977;SDS011;56314;48.088;11.642;2023-04-15T09:21:54;4.07;;;2.25;;
26977;SDS011;56314;48.088;11.642;2023-04-15T09:24:21;7.25;;;2.60;;
26977;SDS011;56314;48.088;11.642;2023-04-15T09:26:47;6.07;;;2.22;;
26977;SDS011;56314;48.088;11.642;2023-04-15T09:29:16;3.25;;;2.60;;
26977;SDS011;56314;48.088;11.642;2023-04-15T09:31:42;4.13;;;2.80;;
26977;SDS011;56314;48.088;11.642;2023-04-15T09:34:08;5.43;;;3.13;;
26977;SDS011;56314;48.088;11.642;2023-04-15T09:39:11;5.05;;;2.53;;
26977;SDS011;56314;48.088;11.642;2023-04-15T09:41:37;5.80;;;3.00;;
26977;SDS011;56314;48.088;11.642;2023-04-15T09:44:03;5.53;;;2.97;;
26977;SDS011;56314;48.088;11.642;2023-04-15T09:46:44;5.45;;;2.95;;
26977;SDS011;56314;48.088;11.642;2023-04-15T09:49:10;5.50;;;3.97;;
26977;SDS011;56314;48.088;11.642;2023-04-15T09:51:36;7.60;;;4.00;;
26977;SDS011;56314;48.088;11.642;2023-04-15T09:54:03;3.20;;;2.67;;
26977;SDS011;56314;48.088;11.642;2023-04-15T09:56:36;3.42;;;2.67;;
26977;SDS011;56314;48.088;11.642;2023-04-15T09:59:06;5.55;;;3.25;;
26977;SDS011;56314;48.088;11.642;2023-04-15T10:01:34;11.23;;;3.65;;
26977;SDS011;56314;48.088;11.642;2023-04-15T10:04:03;10.25;;;3.50;;
26977;SDS011;56314;48.088;11.642;2023-04-15T10:06:29;7.32;;;3.63;;
26977;SDS011;56314;48.088;11.642;2023-04-15T10:08:58;8.63;;;4.25;;
26977;SDS011;56314;48.088;11.642;2023-04-15T10:11:27;6.95;;;3.75;;
26977;SDS011;56314;48.088;11.642;2023-04-15T10:13:53;7.50;;;3.58;;
26977;SDS011;56314;48.088;11.642;2023-04-15T10:16:20;8.57;;;4.60;;
26977;SDS011;56314;48.088;11.642;2023-04-15T10:18:52;6.93;;;4.43;;
26977;SDS011;56314;48.088;11.642;2023-04-15T10:21:19;6.75;;;4.22;;
26977;SDS011;56314;48.088;11.642;2023-04-15T10:23:46;9.20;;;5.07;;
26977;SDS011;56314;48.088;11.642;2023-04-15T10:26:12;7.28;;;4.65;;
26977;SDS011;56314;48.088;11.642;2023-04-15T10:28:39;11.57;;;5.43;;
26977;SDS011;56314;48.088;11.642;2023-04-15T10:31:05;8.30;;;4.82;;
26977;SDS011;56314;48.088;11.642;2023-04-15T10:33:31;5.85;;;4.57;;
26977;SDS011;56314;48.088;11.642;2023-04-15T10:35:58;9.85;;;5.00;;
26977;SDS011;56314;48.088;11.642;2023-04-15T10:41:16;9.73;;;4.55;;
26977;SDS011;56314;48.088;11.642;2023-04-15T10:43:50;9.20;;;5.05;;
26977;SDS011;56314;48.088;11.642;2023-04-15T10:49:08;8.80;;;4.45;;
26977;SDS011;56314;48.088;11.642;2023-04-15T10:51:42;7.13;;;4.80;;
26977;SDS011;56314;48.088;11.642;2023-04-15T10:54:15;7.28;;;5.00;;
26977;SDS011;56314;48.088;11.642;2023-04-15T10:59:30;6.32;;;4.60;;
26977;SDS011;56314;48.088;11.642;2023-04-15T11:02:14;6.97;;;4.03;;
26977;SDS011;56314;48.088;11.642;2023-04-15T11:04:53;6.47;;;3.97;;
26977;SDS011;56314;48.088;11.642;2023-04-15T11:07:34;7.22;;;4.63;;
26977;SDS011;56314;48.088;11.642;2023-04-15T11:12:37;9.93;;;4.13;;
26977;SDS011;56314;48.088;11.642;2023-04-15T11:17:58;6.95;;;4.70;;
26977;SDS011;56314;48.088;11.642;2023-04-15T11:20:32;9.02;;;4.72;;
26977;SDS011;56314;48.088;11.642;2023-04-15T11:22:58;6.30;;;4.00;;
26977;SDS011;56314;48.088;11.642;2023-04-15T11:25:30;7.13;;;4.63;;
26977;SDS011;56314;48.088;11.642;2023-04-15T11:27:57;8.23;;;4.43;;
26977;SDS011;56314;48.088;11.642;2023-04-15T11:30:30;5.68;;;4.05;;
26977;SDS011;56314;48.088;11.642;2023-04-15T11:32:58;7.40;;;4.40;;
26977;SDS011;56314;48.088;11.642;2023-04-15T11:35:25;10.75;;;5.45;;
26977;SDS011;56314;48.088;11.642;2023-04-15T11:37:53;6.82;;;4.50;;
26977;SDS011;56314;48.088;11.642;2023-04-15T11:40:23;6.47;;;4.40;;
26977;SDS011;56314;48.088;11.642;2023-04-15T11:45:36;7.40;;;4.30;;
26977;SDS011;56314;48.088;11.642;2023-04-15T11:48:12;9.80;;;5.07;;
26977;SDS011;56314;48.088;11.642;2023-04-15T11:50:37;10.18;;;4.68;;
26977;SDS011;56314;48.088;11.642;2023-04-15T11:53:07;8.45;;;4.47;;
26977;SDS011;56314;48.088;11.642;2023-04-15T11:55:43;9.43;;;5.13;;
26977;SDS011;56314;48.088;11.642;2023-04-15T11:58:23;8.85;;;5.28;;
26977;SDS011;56314;48.088;11.642;2023-04-15T12:00:54;8.75;;;5.10;;
26977;SDS011;56314;48.088;11.642;2023-04-15T12:06:07;11.15;;;6.57;;
26977;SDS011;56314;48.088;11.642;2023-04-15T12:13:52;13.03;;;4.87;;
26977;SDS011;56314;48.088;11.642;2023-04-15T12:16:18;11.15;;;5.07;;
26977;SDS011;56314;48.088;11.642;2023-04-15T12:18:51;8.20;;;5.05;;
26977;SDS011;56314;48.088;11.642;2023-04-15T12:21:22;6.85;;;4.43;;
26977;SDS011;56314;48.088;11.642;2023-04-15T12:23:49;8.48;;;4.72;;
26977;SDS011;56314;48.088;11.642;2023-04-15T12:26:24;19.13;;;9.50;;
26977;SDS011;56314;48.088;11.642;2023-04-15T12:29:00;9.20;;;5.15;;
26977;SDS011;56314;48.088;11.642;2023-04-15T12:31:26;7.15;;;4.63;;
26977;SDS011;56314;48.088;11.642;2023-04-15T12:33:53;7.63;;;4.50;;
26977;SDS011;56314;48.088;11.642;2023-04-15T12:36:20;10.43;;;4.43;;
26977;SDS011;56314;48.088;11.642;2023-04-15T12:38:50;12.27;;;5.60;;
26977;SDS011;56314;48.088;11.642;2023-04-15T12:41:19;7.35;;;4.40;;
26977;SDS011;56314;48.088;11.642;2023-04-15T12:43:46;7.15;;;4.22;;
26977;SDS011;56314;48.088;11.642;2023-04-15T12:46:12;6.75;;;4.43;;
26977;SDS011;56314;48.088;11.642;2023-04-15T12:48:40;8.32;;;5.32;;
26977;SDS011;56314;48.088;11.642;2023-04-15T12:51:05;6.63;;;4.28;;
26977;SDS011;56314;48.088;11.642;2023-04-15T12:53:33;5.22;;;4.03;;
26977;SDS011;56314;48.088;11.642;2023-04-15T12:56:00;10.25;;;4.60;;
26977;SDS011;56314;48.088;11.642;2023-04-15T12:58:28;5.25;;;4.25;;
26977;SDS011;56314;48.088;11.642;2023-04-15T13:00:53;8.52;;;3.75;;
26977;SDS011;56314;48.088;11.642;2023-04-15T13:03:19;7.72;;;4.25;;
26977;SDS011;56314;48.088;11.642;2023-04-15T13:05:44;6.35;;;4.18;;
26977;SDS011;56314;48.088;11.642;2023-04-15T13:08:10;9.05;;;4.00;;
26977;SDS011;56314;48.088;11.642;2023-04-15T13:10:35;7.20;;;3.92;;
26977;SDS011;56314;48.088;11.642;2023-04-15T13:13:01;4.70;;;3.78;;
26977;SDS011;56314;48.088;11.642;2023-04-15T13:15:27;6.80;;;4.05;;
26977;SDS011;56314;48.088;11.642;2023-04-15T13:17:53;8.32;;;4.00;;
26977;SDS011;56314;48.088;11.642;2023-04-15T13:20:21;6.43;;;3.88;;
26977;SDS011;56314;48.088;11.642;2023-04-15T13:22:46;8.43;;;3.65;;
26977;SDS011;56314;48.088;11.642;2023-04-15T13:25:12;3.50;;;2.80;;
26977;SDS011;56314;48.088;11.642;2023-04-15T13:27:37;4.10;;;2.97;;
26977;SDS011;56314;48.088;11.642;2023-04-15T13:30:05;5.90;;;3.13;;
26977;SDS011;56314;48.088;11.642;2023-04-15T13:32:33;9.20;;;3.55;;
26977;SDS011;56314;48.088;11.642;2023-04-15T13:34:59;4.43;;;3.03;;
26977;SDS011;56314;48.088;11.642;2023-04-15T13:37:25;6.90;;;2.90;;
26977;SDS011;56314;48.088;11.642;2023-04-15T13:39:52;8.95;;;3.50;;
26977;SDS011;56314;48.088;11.642;2023-04-15T13:42:20;7.43;;;3.95;;
26977;SDS011;56314;48.088;11.642;2023-04-15T13:44:46;6.80;;;3.85;;
26977;SDS011;56314;48.088;11.642;2023-04-15T13:47:12;9.52;;;3.50;;
26977;SDS011;56314;48.088;11.642;2023-04-15T13:49:38;5.93;;;3.55;;
26977;SDS011;56314;48.088;11.642;2023-04-15T13:52:04;10.32;;;4.25;;
26977;SDS011;56314;48.088;11.642;2023-04-15T13:54:30;6.07;;;3.80;;
26977;SDS011;56314;48.088;11.642;2023-04-15T13:56:55;10.90;;;3.83;;
26977;SDS011;56314;48.088;11.642;2023-04-15T13:59:23;7.18;;;3.70;;
26977;SDS011;56314;48.088;11.642;2023-04-15T14:01:48;7.57;;;3.65;;
26977;SDS011;56314;48.088;11.642;2023-04-15T14:04:14;6.95;;;4.20;;
26977;SDS011;56314;48.088;11.642;2023-04-15T14:06:39;6.93;;;4.40;;
26977;SDS011;56314;48.088;11.642;2023-04-15T14:09:05;8.95;;;4.45;;
26977;SDS011;56314;48.088;11.642;2023-04-15T14:11:51;9.70;;;4.47;;
26977;SDS011;56314;48.088;11.642;2023-04-15T14:14:17;9.05;;;4.88;;
26977;SDS011;56314;48.088;11.642;2023-04-15T14:16:42;7.30;;;4.53;;
26977;SDS011;56314;48.088;11.642;2023-04-15T14:19:08;6.22;;;4.13;;
26977;SDS011;56314;48.088;11.642;2023-04-15T14:21:36;7.68;;;3.72;;
26977;SDS011;56314;48.088;11.642;2023-04-15T14:24:01;7.97;;;4.13;;
26977;SDS011;56314;48.088;11.642;2023-04-15T14:26:27;6.22;;;3.70;;
26977;SDS011;56314;48.088;11.642;2023-04-15T14:28:55;5.63;;;3.42;;
26977;SDS011;56314;48.088;11.642;2023-04-15T14:31:20;7.50;;;4.00;;
26977;SDS011;56314;48.088;11.642;2023-04-15T14:33:49;8.80;;;3.95;;
26977;SDS011;56314;48.088;11.642;2023-04-15T14:36:14;4.88;;;3.33;;
26977;SDS011;56314;48.088;11.642;2023-04-15T14:38:39;5.15;;;3.05;;
26977;SDS011;56314;48.088;11.642;2023-04-15T14:41:07;5.43;;;3.10;;
26977;SDS011;56314;48.088;11.642;2023-04-15T14:43:34;6.88;;;3.00;;
26977;SDS011;56314;48.088;11.642;2023-04-15T14:46:02;4.97;;;2.90;;
26977;SDS011;56314;48.088;11.642;2023-04-15T14:48:30;4.25;;;2.88;;
26977;SDS011;56314;48.088;11.642;2023-04-15T14:50:56;5.80;;;2.83;;
26977;SDS011;56314;48.088;11.642;2023-04-15T14:53:22;5.03;;;3.30;;
26977;SDS011;56314;48.088;11.642;2023-04-15T14:55:47;5.28;;;3.42;;
26977;SDS011;56314;48.088;11.642;2023-04-15T14:58:12;3.65;;;2.72;;